sensor_id;sensor_type;location;lat;lon;timestamp;P1;durP1;ratioP1;P2;durP2;ratioP2
1649;SDS011;822;53.670;8.676;2023-03-23T00:01:48;9.60;;;5.73;;
1649;SDS011;822;53.670;8.676;2023-03-23T00:04:15;6.40;;;4.90;;
1649;SDS011;822;53.670;8.676;2023-03-23T00:06:43;5.13;;;4.63;;
1649;SDS011;822;53.670;8.676;2023-03-23T00:09:10;7.60;;;6.00;;
1649;SDS011;822;53.670;8.676;2023-03-23T00:11:40;6.03;;;5.40;;
1649;SDS011;822;53.670;8.676;2023-03-23T00:14:08;7.90;;;4.80;;
1649;SDS011;822;53.670;8.676;2023-03-23T00:16:38;5.33;;;4.80;;
1649;SDS011;822;53.670;8.676;2023-03-23T00:19:10;7.67;;;5.33;;
1649;SDS011;822;53.670;8.676;2023-03-23T00:21:39;8.47;;;5.50;;
1649;SDS011;822;53.670;8.676;2023-03-23T00:24:07;6.03;;;4.70;;
1649;SDS011;822;53.670;8.676;2023-03-23T00:26:37;6.60;;;5.93;;
1649;SDS011;822;53.670;8.676;2023-03-23T00:29:06;6.13;;;4.63;;
1649;SDS011;822;53.670;8.676;2023-03-23T00:31:38;6.23;;;5.60;;
1649;SDS011;822;53.670;8.676;2023-03-23T00:34:06;4.80;;;4.27;;
1649;SDS011;822;53.670;8.676;2023-03-23T00:36:34;7.80;;;5.97;;
1649;SDS011;822;53.670;8.676;2023-03-23T00:39:08;5.83;;;5.33;;
1649;SDS011;822;53.670;8.676;2023-03-23T00:41:35;5.87;;;4.23;;
1649;SDS011;822;53.670;8.676;2023-03-23T00:44:03;4.93;;;2.43;;
1649;SDS011;822;53.670;8.676;2023-03-23T00:46:33;2.50;;;1.93;;
1649;SDS011;822;53.670;8.676;2023-03-23T00:49:10;1.47;;;1.30;;
1649;SDS011;822;53.670;8.676;2023-03-23T00:51:40;2.47;;;1.67;;
1649;SDS011;822;53.670;8.676;2023-03-23T00:54:08;1.70;;;1.60;;
1649;SDS011;822;53.670;8.676;2023-03-23T00:56:36;1.93;;;1.33;;
1649;SDS011;822;53.670;8.676;2023-03-23T00:59:04;0.77;;;0.77;;
1649;SDS011;822;53.670;8.676;2023-03-23T01:01:31;2.00;;;1.40;;
1649;SDS011;822;53.670;8.676;2023-03-23T01:04:00;2.30;;;1.40;;
1649;SDS011;822;53.670;8.676;2023-03-23T01:06:29;1.80;;;1.50;;
1649;SDS011;822;53.670;8.676;2023-03-23T01:08:59;0.90;;;0.90;;
1649;SDS011;822;53.670;8.676;2023-03-23T01:11:26;1.33;;;0.97;;
1649;SDS011;822;53.670;8.676;2023-03-23T01:13:53;0.50;;;0.50;;
1649;SDS011;822;53.670;8.676;2023-03-23T01:16:20;1.20;;;0.90;;
1649;SDS011;822;53.670;8.676;2023-03-23T01:18:48;0.90;;;0.80;;
1649;SDS011;822;53.670;8.676;2023-03-23T01:21:16;0.87;;;0.87;;
1649;SDS011;822;53.670;8.676;2023-03-23T01:23:45;0.50;;;0.50;;
1649;SDS011;822;53.670;8.676;2023-03-23T01:26:15;2.80;;;0.70;;
1649;SDS011;822;53.670;8.676;2023-03-23T01:28:43;1.13;;;0.90;;
1649;SDS011;822;53.670;8.676;2023-03-23T01:31:11;0.70;;;0.70;;
1649;SDS011;822;53.670;8.676;2023-03-23T01:33:40;0.90;;;0.73;;
1649;SDS011;822;53.670;8.676;2023-03-23T01:36:09;0.83;;;0.83;;
1649;SDS011;822;53.670;8.676;2023-03-23T01:38:38;0.57;;;0.57;;
1649;SDS011;822;53.670;8.676;2023-03-23T01:41:05;1.10;;;0.67;;
1649;SDS011;822;53.670;8.676;2023-03-23T01:43:34;1.17;;;0.60;;
1649;SDS011;822;53.670;8.676;2023-03-23T01:46:01;0.73;;;0.73;;
1649;SDS011;822;53.670;8.676;2023-03-23T01:48:29;0.50;;;0.50;;
1649;SDS011;822;53.670;8.676;2023-03-23T01:51:00;0.97;;;0.97;;
1649;SDS011;822;53.670;8.676;2023-03-23T01:53:31;0.70;;;0.60;;
1649;SDS011;822;53.670;8.676;2023-03-23T01:56:04;3.13;;;1.30;;
1649;SDS011;822;53.670;8.676;2023-03-23T01:58:34;1.40;;;1.30;;
1649;SDS011;822;53.670;8.676;2023-03-23T02:01:05;2.67;;;1.30;;
1649;SDS011;822;53.670;8.676;2023-03-23T02:03:36;3.70;;;3.37;;
1649;SDS011;822;53.670;8.676;2023-03-23T02:06:05;5.07;;;4.27;;
1649;SDS011;822;53.670;8.676;2023-03-23T02:08:33;6.03;;;5.03;;
1649;SDS011;822;53.670;8.676;2023-03-23T02:11:01;7.13;;;6.43;;
1649;SDS011;822;53.670;8.676;2023-03-23T02:13:36;6.77;;;5.03;;
1649;SDS011;822;53.670;8.676;2023-03-23T02:16:04;5.53;;;5.13;;
1649;SDS011;822;53.670;8.676;2023-03-23T02:18:40;5.87;;;5.07;;
1649;SDS011;822;53.670;8.676;2023-03-23T02:27:28;7.80;;;5.73;;
1649;SDS011;822;53.670;8.676;2023-03-23T02:30:21;6.90;;;5.23;;
1649;SDS011;822;53.670;8.676;2023-03-23T02:36:06;6.37;;;4.80;;
1649;SDS011;822;53.670;8.676;2023-03-23T02:38:42;6.00;;;5.40;;
1649;SDS011;822;53.670;8.676;2023-03-23T02:41:17;8.23;;;6.50;;
1649;SDS011;822;53.670;8.676;2023-03-23T02:43:47;5.80;;;5.30;;
1649;SDS011;822;53.670;8.676;2023-03-23T02:46:16;6.83;;;6.13;;
1649;SDS011;822;53.670;8.676;2023-03-23T02:48:47;4.40;;;3.80;;
1649;SDS011;822;53.670;8.676;2023-03-23T02:51:16;6.63;;;5.77;;
1649;SDS011;822;53.670;8.676;2023-03-23T02:53:46;7.00;;;5.93;;
1649;SDS011;822;53.670;8.676;2023-03-23T02:56:17;6.47;;;5.00;;
1649;SDS011;822;53.670;8.676;2023-03-23T02:58:46;6.33;;;5.20;;
1649;SDS011;822;53.670;8.676;2023-03-23T03:04:26;8.60;;;6.50;;
1649;SDS011;822;53.670;8.676;2023-03-23T03:06:58;8.23;;;6.27;;
1649;SDS011;822;53.670;8.676;2023-03-23T03:09:45;8.10;;;5.80;;
1649;SDS011;822;53.670;8.676;2023-03-23T03:12:17;8.00;;;6.00;;
1649;SDS011;822;53.670;8.676;2023-03-23T03:14:52;6.47;;;5.87;;
1649;SDS011;822;53.670;8.676;2023-03-23T03:17:24;6.03;;;5.43;;
1649;SDS011;822;53.670;8.676;2023-03-23T03:19:56;5.93;;;5.33;;
1649;SDS011;822;53.670;8.676;2023-03-23T03:22:34;6.00;;;5.27;;
1649;SDS011;822;53.670;8.676;2023-03-23T03:25:07;8.13;;;6.33;;
1649;SDS011;822;53.670;8.676;2023-03-23T03:27:37;7.17;;;6.47;;
1649;SDS011;822;53.670;8.676;2023-03-23T03:30:07;7.57;;;6.77;;
1649;SDS011;822;53.670;8.676;2023-03-23T03:32:39;8.23;;;5.20;;
1649;SDS011;822;53.670;8.676;2023-03-23T03:35:13;7.40;;;5.80;;
1649;SDS011;822;53.670;8.676;2023-03-23T03:37:40;7.97;;;5.80;;
1649;SDS011;822;53.670;8.676;2023-03-23T03:40:09;8.17;;;7.07;;
1649;SDS011;822;53.670;8.676;2023-03-23T03:42:39;8.13;;;6.03;;
1649;SDS011;822;53.670;8.676;2023-03-23T03:45:08;5.77;;;5.13;;
1649;SDS011;822;53.670;8.676;2023-03-23T03:47:40;7.30;;;6.00;;
1649;SDS011;822;53.670;8.676;2023-03-23T03:50:07;7.10;;;5.97;;
1649;SDS011;822;53.670;8.676;2023-03-23T03:52:36;6.87;;;5.83;;
1649;SDS011;822;53.670;8.676;2023-03-23T03:55:05;8.77;;;5.77;;
1649;SDS011;822;53.670;8.676;2023-03-23T03:57:34;6.03;;;5.20;;
1649;SDS011;822;53.670;8.676;2023-03-23T04:00:01;9.40;;;5.47;;
1649;SDS011;822;53.670;8.676;2023-03-23T04:02:39;6.80;;;5.73;;
1649;SDS011;822;53.670;8.676;2023-03-23T04:05:12;5.53;;;4.23;;
1649;SDS011;822;53.670;8.676;2023-03-23T04:07:41;4.73;;;4.20;;
1649;SDS011;822;53.670;8.676;2023-03-23T04:10:09;5.20;;;4.63;;
1649;SDS011;822;53.670;8.676;2023-03-23T04:12:38;7.00;;;5.80;;
1649;SDS011;822;53.670;8.676;2023-03-23T04:15:06;7.57;;;5.00;;
1649;SDS011;822;53.670;8.676;2023-03-23T04:17:33;7.50;;;3.73;;
1649;SDS011;822;53.670;8.676;2023-03-23T04:20:01;3.73;;;3.33;;
1649;SDS011;822;53.670;8.676;2023-03-23T04:22:33;4.97;;;4.57;;
1649;SDS011;822;53.670;8.676;2023-03-23T04:25:02;3.80;;;3.50;;
1649;SDS011;822;53.670;8.676;2023-03-23T04:27:31;5.20;;;4.53;;
1649;SDS011;822;53.670;8.676;2023-03-23T04:29:59;4.83;;;4.07;;
1649;SDS011;822;53.670;8.676;2023-03-23T04:32:28;4.17;;;3.77;;
1649;SDS011;822;53.670;8.676;2023-03-23T04:34:56;4.30;;;3.90;;
1649;SDS011;822;53.670;8.676;2023-03-23T04:37:25;6.70;;;4.23;;
1649;SDS011;822;53.670;8.676;2023-03-23T04:39:54;4.67;;;3.73;;
1649;SDS011;822;53.670;8.676;2023-03-23T04:42:28;3.90;;;3.60;;
1649;SDS011;822;53.670;8.676;2023-03-23T04:44:57;4.40;;;3.10;;
1649;SDS011;822;53.670;8.676;2023-03-23T04:47:25;3.47;;;3.17;;
1649;SDS011;822;53.670;8.676;2023-03-23T04:49:54;3.50;;;2.40;;
1649;SDS011;822;53.670;8.676;2023-03-23T04:52:22;3.87;;;3.03;;
1649;SDS011;822;53.670;8.676;2023-03-23T04:54:50;4.40;;;3.60;;
1649;SDS011;822;53.670;8.676;2023-03-23T04:57:17;3.40;;;3.20;;
1649;SDS011;822;53.670;8.676;2023-03-23T04:59:46;3.13;;;2.80;;
1649;SDS011;822;53.670;8.676;2023-03-23T05:02:13;3.23;;;2.87;;
1649;SDS011;822;53.670;8.676;2023-03-23T05:04:42;3.60;;;3.30;;
1649;SDS011;822;53.670;8.676;2023-03-23T05:07:10;3.57;;;3.30;;
1649;SDS011;822;53.670;8.676;2023-03-23T05:09:38;3.30;;;2.70;;
1649;SDS011;822;53.670;8.676;2023-03-23T05:12:05;3.30;;;3.00;;
1649;SDS011;822;53.670;8.676;2023-03-23T05:14:33;2.80;;;2.60;;
1649;SDS011;822;53.670;8.676;2023-03-23T05:17:03;3.50;;;3.20;;
1649;SDS011;822;53.670;8.676;2023-03-23T05:19:30;4.00;;;3.63;;
1649;SDS011;822;53.670;8.676;2023-03-23T05:21:58;4.10;;;3.40;;
1649;SDS011;822;53.670;8.676;2023-03-23T05:24:28;2.40;;;2.20;;
1649;SDS011;822;53.670;8.676;2023-03-23T05:26:57;3.10;;;2.90;;
1649;SDS011;822;53.670;8.676;2023-03-23T05:29:25;3.53;;;3.07;;
1649;SDS011;822;53.670;8.676;2023-03-23T05:31:55;2.77;;;2.50;;
1649;SDS011;822;53.670;8.676;2023-03-23T05:34:26;3.80;;;2.83;;
1649;SDS011;822;53.670;8.676;2023-03-23T05:36:54;3.80;;;3.20;;
1649;SDS011;822;53.670;8.676;2023-03-23T05:39:22;4.83;;;2.63;;
1649;SDS011;822;53.670;8.676;2023-03-23T05:41:49;3.13;;;2.53;;
1649;SDS011;822;53.670;8.676;2023-03-23T05:44:17;2.80;;;2.63;;
1649;SDS011;822;53.670;8.676;2023-03-23T05:46:45;3.80;;;2.90;;
1649;SDS011;822;53.670;8.676;2023-03-23T05:49:13;2.90;;;2.70;;
1649;SDS011;822;53.670;8.676;2023-03-23T05:51:43;4.00;;;3.60;;
1649;SDS011;822;53.670;8.676;2023-03-23T05:54:12;5.03;;;3.50;;
1649;SDS011;822;53.670;8.676;2023-03-23T05:56:39;3.30;;;3.00;;
1649;SDS011;822;53.670;8.676;2023-03-23T05:59:07;4.87;;;3.70;;
1649;SDS011;822;53.670;8.676;2023-03-23T06:01:36;4.47;;;4.13;;
1649;SDS011;822;53.670;8.676;2023-03-23T06:04:04;3.30;;;3.00;;
1649;SDS011;822;53.670;8.676;2023-03-23T06:06:31;4.10;;;3.80;;
1649;SDS011;822;53.670;8.676;2023-03-23T06:08:59;5.03;;;3.20;;
1649;SDS011;822;53.670;8.676;2023-03-23T06:11:28;3.60;;;3.30;;
1649;SDS011;822;53.670;8.676;2023-03-23T06:13:58;4.30;;;3.73;;
1649;SDS011;822;53.670;8.676;2023-03-23T06:16:32;5.80;;;3.17;;
1649;SDS011;822;53.670;8.676;2023-03-23T06:18:59;1.03;;;0.87;;
1649;SDS011;822;53.670;8.676;2023-03-23T06:21:32;0.80;;;0.80;;
1649;SDS011;822;53.670;8.676;2023-03-23T06:24:16;1.67;;;1.00;;
1649;SDS011;822;53.670;8.676;2023-03-23T06:26:43;0.60;;;0.60;;
1649;SDS011;822;53.670;8.676;2023-03-23T06:29:10;0.83;;;0.83;;
1649;SDS011;822;53.670;8.676;2023-03-23T06:31:38;5.73;;;0.63;;
1649;SDS011;822;53.670;8.676;2023-03-23T06:34:06;2.20;;;0.60;;
1649;SDS011;822;53.670;8.676;2023-03-23T06:36:34;0.90;;;0.90;;
1649;SDS011;822;53.670;8.676;2023-03-23T06:39:01;1.37;;;0.50;;
1649;SDS011;822;53.670;8.676;2023-03-23T06:41:31;1.07;;;0.83;;
1649;SDS011;822;53.670;8.676;2023-03-23T06:43:58;0.93;;;0.47;;
1649;SDS011;822;53.670;8.676;2023-03-23T06:46:25;0.97;;;0.70;;
1649;SDS011;822;53.670;8.676;2023-03-23T06:48:53;2.30;;;0.50;;
1649;SDS011;822;53.670;8.676;2023-03-23T06:51:20;1.83;;;0.50;;
1649;SDS011;822;53.670;8.676;2023-03-23T06:53:48;1.47;;;0.57;;
1649;SDS011;822;53.670;8.676;2023-03-23T06:56:15;3.70;;;0.70;;
1649;SDS011;822;53.670;8.676;2023-03-23T06:58:47;2.07;;;0.77;;
1649;SDS011;822;53.670;8.676;2023-03-23T07:01:14;0.63;;;0.63;;
1649;SDS011;822;53.670;8.676;2023-03-23T07:03:41;2.93;;;0.80;;
1649;SDS011;822;53.670;8.676;2023-03-23T07:06:09;0.97;;;0.80;;
1649;SDS011;822;53.670;8.676;2023-03-23T07:08:36;1.20;;;1.07;;
1649;SDS011;822;53.670;8.676;2023-03-23T07:11:04;1.20;;;1.10;;
1649;SDS011;822;53.670;8.676;2023-03-23T07:13:32;1.50;;;1.40;;
1649;SDS011;822;53.670;8.676;2023-03-23T07:16:00;1.03;;;1.03;;
1649;SDS011;822;53.670;8.676;2023-03-23T07:18:31;0.90;;;0.90;;
1649;SDS011;822;53.670;8.676;2023-03-23T07:20:58;0.93;;;0.93;;
1649;SDS011;822;53.670;8.676;2023-03-23T07:23:26;2.60;;;1.70;;
1649;SDS011;822;53.670;8.676;2023-03-23T07:25:55;3.20;;;1.40;;
1649;SDS011;822;53.670;8.676;2023-03-23T07:28:22;0.80;;;0.80;;
1649;SDS011;822;53.670;8.676;2023-03-23T07:30:50;1.20;;;1.00;;
1649;SDS011;822;53.670;8.676;2023-03-23T07:33:18;0.90;;;0.87;;
1649;SDS011;822;53.670;8.676;2023-03-23T07:35:46;1.60;;;1.10;;
1649;SDS011;822;53.670;8.676;2023-03-23T07:38:14;0.73;;;0.73;;
1649;SDS011;822;53.670;8.676;2023-03-23T07:40:41;0.80;;;0.80;;
1649;SDS011;822;53.670;8.676;2023-03-23T07:43:09;2.80;;;1.37;;
1649;SDS011;822;53.670;8.676;2023-03-23T07:45:36;5.93;;;1.30;;
1649;SDS011;822;53.670;8.676;2023-03-23T07:48:03;7.03;;;1.80;;
1649;SDS011;822;53.670;8.676;2023-03-23T07:50:32;4.93;;;1.63;;
1649;SDS011;822;53.670;8.676;2023-03-23T07:53:02;5.30;;;2.00;;
1649;SDS011;822;53.670;8.676;2023-03-23T07:55:29;1.53;;;1.30;;
1649;SDS011;822;53.670;8.676;2023-03-23T07:57:57;1.20;;;1.00;;
1649;SDS011;822;53.670;8.676;2023-03-23T08:00:24;2.20;;;1.00;;
1649;SDS011;822;53.670;8.676;2023-03-23T08:02:52;2.83;;;1.87;;
1649;SDS011;822;53.670;8.676;2023-03-23T08:05:21;1.17;;;0.90;;
1649;SDS011;822;53.670;8.676;2023-03-23T08:07:52;0.87;;;0.87;;
1649;SDS011;822;53.670;8.676;2023-03-23T08:10:21;2.83;;;1.30;;
1649;SDS011;822;53.670;8.676;2023-03-23T08:12:50;2.80;;;1.67;;
1649;SDS011;822;53.670;8.676;2023-03-23T08:15:19;1.60;;;1.50;;
1649;SDS011;822;53.670;8.676;2023-03-23T08:17:46;1.10;;;1.00;;
1649;SDS011;822;53.670;8.676;2023-03-23T08:20:14;4.33;;;1.77;;
1649;SDS011;822;53.670;8.676;2023-03-23T08:22:44;2.33;;;1.30;;
1649;SDS011;822;53.670;8.676;2023-03-23T08:25:20;3.83;;;1.70;;
1649;SDS011;822;53.670;8.676;2023-03-23T08:27:49;1.20;;;1.10;;
1649;SDS011;822;53.670;8.676;2023-03-23T08:30:18;1.43;;;1.33;;
1649;SDS011;822;53.670;8.676;2023-03-23T08:32:47;1.20;;;1.07;;
1649;SDS011;822;53.670;8.676;2023-03-23T08:35:15;1.17;;;1.17;;
1649;SDS011;822;53.670;8.676;2023-03-23T08:37:43;1.10;;;1.00;;
1649;SDS011;822;53.670;8.676;2023-03-23T08:40:11;4.10;;;1.70;;
1649;SDS011;822;53.670;8.676;2023-03-23T08:42:41;4.53;;;1.50;;
1649;SDS011;822;53.670;8.676;2023-03-23T08:45:10;2.40;;;1.10;;
1649;SDS011;822;53.670;8.676;2023-03-23T08:47:40;1.57;;;1.33;;
1649;SDS011;822;53.670;8.676;2023-03-23T08:50:10;2.50;;;1.60;;
1649;SDS011;822;53.670;8.676;2023-03-23T08:52:38;2.47;;;1.40;;
1649;SDS011;822;53.670;8.676;2023-03-23T08:55:06;2.60;;;1.10;;
1649;SDS011;822;53.670;8.676;2023-03-23T08:57:35;2.30;;;0.90;;
1649;SDS011;822;53.670;8.676;2023-03-23T09:00:04;1.83;;;1.20;;
1649;SDS011;822;53.670;8.676;2023-03-23T09:02:39;1.87;;;1.30;;
1649;SDS011;822;53.670;8.676;2023-03-23T09:05:07;4.00;;;1.60;;
1649;SDS011;822;53.670;8.676;2023-03-23T09:07:36;0.87;;;0.80;;
1649;SDS011;822;53.670;8.676;2023-03-23T09:10:04;0.83;;;0.70;;
1649;SDS011;822;53.670;8.676;2023-03-23T09:12:32;2.63;;;1.17;;
1649;SDS011;822;53.670;8.676;2023-03-23T09:15:00;0.90;;;0.80;;
1649;SDS011;822;53.670;8.676;2023-03-23T09:17:31;1.10;;;1.00;;
1649;SDS011;822;53.670;8.676;2023-03-23T09:19:58;3.20;;;1.00;;
1649;SDS011;822;53.670;8.676;2023-03-23T09:22:33;2.37;;;0.83;;
1649;SDS011;822;53.670;8.676;2023-03-23T09:25:13;2.40;;;0.87;;
1649;SDS011;822;53.670;8.676;2023-03-23T09:27:44;3.80;;;1.33;;
1649;SDS011;822;53.670;8.676;2023-03-23T09:30:14;1.07;;;0.97;;
1649;SDS011;822;53.670;8.676;2023-03-23T09:32:45;0.90;;;0.87;;
1649;SDS011;822;53.670;8.676;2023-03-23T09:35:14;1.40;;;0.73;;
1649;SDS011;822;53.670;8.676;2023-03-23T09:37:42;0.87;;;0.77;;
1649;SDS011;822;53.670;8.676;2023-03-23T09:40:11;1.10;;;0.73;;
1649;SDS011;822;53.670;8.676;2023-03-23T09:42:50;0.87;;;0.60;;
1649;SDS011;822;53.670;8.676;2023-03-23T09:45:51;2.40;;;1.07;;
1649;SDS011;822;53.670;8.676;2023-03-23T09:48:31;2.77;;;0.70;;
1649;SDS011;822;53.670;8.676;2023-03-23T09:51:07;5.50;;;1.23;;
1649;SDS011;822;53.670;8.676;2023-03-23T09:53:41;3.80;;;0.87;;
1649;SDS011;822;53.670;8.676;2023-03-23T09:56:11;1.53;;;0.80;;
1649;SDS011;822;53.670;8.676;2023-03-23T09:58:43;0.87;;;0.77;;
1649;SDS011;822;53.670;8.676;2023-03-23T10:01:20;2.93;;;0.70;;
1649;SDS011;822;53.670;8.676;2023-03-23T10:03:52;1.23;;;0.77;;
1649;SDS011;822;53.670;8.676;2023-03-23T10:06:26;9.20;;;1.40;;
1649;SDS011;822;53.670;8.676;2023-03-23T10:08:55;2.60;;;0.73;;
1649;SDS011;822;53.670;8.676;2023-03-23T10:11:27;5.37;;;1.13;;
1649;SDS011;822;53.670;8.676;2023-03-23T10:14:06;3.40;;;1.13;;
1649;SDS011;822;53.670;8.676;2023-03-23T10:16:42;6.23;;;1.00;;
1649;SDS011;822;53.670;8.676;2023-03-23T10:19:20;3.90;;;1.20;;
1649;SDS011;822;53.670;8.676;2023-03-23T10:21:56;2.20;;;0.93;;
1649;SDS011;822;53.670;8.676;2023-03-23T10:24:29;1.40;;;1.00;;
1649;SDS011;822;53.670;8.676;2023-03-23T10:27:04;1.90;;;1.80;;
1649;SDS011;822;53.670;8.676;2023-03-23T10:29:39;1.10;;;1.10;;
1649;SDS011;822;53.670;8.676;2023-03-23T10:32:11;4.20;;;1.70;;
1649;SDS011;822;53.670;8.676;2023-03-23T10:34:42;3.17;;;1.40;;
1649;SDS011;822;53.670;8.676;2023-03-23T10:37:16;1.60;;;1.50;;
1649;SDS011;822;53.670;8.676;2023-03-23T10:39:48;5.13;;;1.40;;
1649;SDS011;822;53.670;8.676;2023-03-23T10:42:21;1.30;;;1.20;;
1649;SDS011;822;53.670;8.676;2023-03-23T10:44:50;2.40;;;1.10;;
1649;SDS011;822;53.670;8.676;2023-03-23T10:47:17;5.47;;;1.93;;
1649;SDS011;822;53.670;8.676;2023-03-23T10:49:47;3.00;;;1.30;;
1649;SDS011;822;53.670;8.676;2023-03-23T10:52:23;1.83;;;1.10;;
1649;SDS011;822;53.670;8.676;2023-03-23T10:55:01;8.17;;;1.40;;
1649;SDS011;822;53.670;8.676;2023-03-23T10:57:31;2.00;;;0.80;;
1649;SDS011;822;53.670;8.676;2023-03-23T11:00:00;6.30;;;1.90;;
1649;SDS011;822;53.670;8.676;2023-03-23T11:02:35;1.20;;;1.10;;
1649;SDS011;822;53.670;8.676;2023-03-23T11:05:15;0.93;;;0.83;;
1649;SDS011;822;53.670;8.676;2023-03-23T11:07:49;1.47;;;0.90;;
1649;SDS011;822;53.670;8.676;2023-03-23T11:10:21;0.93;;;0.80;;
1649;SDS011;822;53.670;8.676;2023-03-23T11:12:51;1.33;;;1.00;;
1649;SDS011;822;53.670;8.676;2023-03-23T11:15:27;1.10;;;1.10;;
1649;SDS011;822;53.670;8.676;2023-03-23T11:17:56;1.07;;;0.87;;
1649;SDS011;822;53.670;8.676;2023-03-23T11:20:26;5.13;;;1.40;;
1649;SDS011;822;53.670;8.676;2023-03-23T11:22:54;2.13;;;1.10;;
1649;SDS011;822;53.670;8.676;2023-03-23T11:25:22;5.20;;;1.50;;
1649;SDS011;822;53.670;8.676;2023-03-23T11:27:54;3.07;;;0.83;;
1649;SDS011;822;53.670;8.676;2023-03-23T11:30:23;3.03;;;1.07;;
1649;SDS011;822;53.670;8.676;2023-03-23T11:32:52;1.57;;;0.90;;
1649;SDS011;822;53.670;8.676;2023-03-23T11:35:22;2.90;;;1.27;;
1649;SDS011;822;53.670;8.676;2023-03-23T11:37:54;3.10;;;1.33;;
1649;SDS011;822;53.670;8.676;2023-03-23T11:40:24;2.73;;;1.00;;
1649;SDS011;822;53.670;8.676;2023-03-23T11:42:57;1.07;;;0.83;;
1649;SDS011;822;53.670;8.676;2023-03-23T11:45:31;2.53;;;1.10;;
1649;SDS011;822;53.670;8.676;2023-03-23T11:48:12;1.63;;;0.90;;
1649;SDS011;822;53.670;8.676;2023-03-23T11:50:48;1.70;;;1.00;;
1649;SDS011;822;53.670;8.676;2023-03-23T11:53:27;2.20;;;1.17;;
1649;SDS011;822;53.670;8.676;2023-03-23T11:56:06;1.87;;;1.13;;
1649;SDS011;822;53.670;8.676;2023-03-23T11:58:40;3.87;;;1.47;;
1649;SDS011;822;53.670;8.676;2023-03-23T12:01:38;1.23;;;0.67;;
1649;SDS011;822;53.670;8.676;2023-03-23T12:04:16;1.60;;;0.87;;
1649;SDS011;822;53.670;8.676;2023-03-23T12:07:09;7.10;;;1.43;;
1649;SDS011;822;53.670;8.676;2023-03-23T12:09:57;1.67;;;1.00;;
1649;SDS011;822;53.670;8.676;2023-03-23T12:12:35;1.47;;;1.27;;
1649;SDS011;822;53.670;8.676;2023-03-23T12:15:10;1.13;;;0.70;;
1649;SDS011;822;53.670;8.676;2023-03-23T12:17:48;3.53;;;1.90;;
1649;SDS011;822;53.670;8.676;2023-03-23T12:20:28;2.63;;;0.90;;
1649;SDS011;822;53.670;8.676;2023-03-23T12:23:08;1.33;;;0.70;;
1649;SDS011;822;53.670;8.676;2023-03-23T12:25:46;3.73;;;0.93;;
1649;SDS011;822;53.670;8.676;2023-03-23T12:28:26;4.07;;;1.03;;
1649;SDS011;822;53.670;8.676;2023-03-23T12:31:03;1.33;;;0.80;;
1649;SDS011;822;53.670;8.676;2023-03-23T12:33:40;1.17;;;1.00;;
1649;SDS011;822;53.670;8.676;2023-03-23T12:36:18;1.73;;;1.50;;
1649;SDS011;822;53.670;8.676;2023-03-23T12:42:03;1.20;;;0.90;;
1649;SDS011;822;53.670;8.676;2023-03-23T12:44:43;2.00;;;0.80;;
1649;SDS011;822;53.670;8.676;2023-03-23T12:50:03;1.80;;;1.00;;
1649;SDS011;822;53.670;8.676;2023-03-23T12:52:39;1.83;;;1.10;;
1649;SDS011;822;53.670;8.676;2023-03-23T12:55:15;5.23;;;1.63;;
1649;SDS011;822;53.670;8.676;2023-03-23T12:57:50;2.10;;;1.03;;
1649;SDS011;822;53.670;8.676;2023-03-23T13:00:25;2.33;;;1.00;;
1649;SDS011;822;53.670;8.676;2023-03-23T13:02:59;1.00;;;0.70;;
1649;SDS011;822;53.670;8.676;2023-03-23T13:05:35;2.00;;;1.40;;
1649;SDS011;822;53.670;8.676;2023-03-23T13:08:10;2.27;;;0.97;;
1649;SDS011;822;53.670;8.676;2023-03-23T13:10:43;1.50;;;1.33;;
1649;SDS011;822;53.670;8.676;2023-03-23T13:13:16;1.83;;;1.23;;
1649;SDS011;822;53.670;8.676;2023-03-23T13:15:50;1.43;;;1.17;;
1649;SDS011;822;53.670;8.676;2023-03-23T13:18:27;2.23;;;0.90;;
1649;SDS011;822;53.670;8.676;2023-03-23T13:21:06;1.27;;;1.17;;
1649;SDS011;822;53.670;8.676;2023-03-23T13:23:40;2.43;;;1.43;;
1649;SDS011;822;53.670;8.676;2023-03-23T13:26:11;1.27;;;0.90;;
1649;SDS011;822;53.670;8.676;2023-03-23T13:28:51;3.13;;;1.20;;
1649;SDS011;822;53.670;8.676;2023-03-23T13:31:24;2.00;;;0.77;;
1649;SDS011;822;53.670;8.676;2023-03-23T13:34:03;1.17;;;0.83;;
1649;SDS011;822;53.670;8.676;2023-03-23T13:36:36;2.40;;;1.07;;
1649;SDS011;822;53.670;8.676;2023-03-23T13:39:05;0.90;;;0.90;;
1649;SDS011;822;53.670;8.676;2023-03-23T13:41:47;2.63;;;1.00;;
1649;SDS011;822;53.670;8.676;2023-03-23T13:44:17;2.20;;;0.90;;
1649;SDS011;822;53.670;8.676;2023-03-23T13:46:56;0.93;;;0.60;;
1649;SDS011;822;53.670;8.676;2023-03-23T13:49:31;2.63;;;1.17;;
1649;SDS011;822;53.670;8.676;2023-03-23T13:52:00;2.30;;;1.47;;
1649;SDS011;822;53.670;8.676;2023-03-23T13:54:42;2.43;;;0.93;;
1649;SDS011;822;53.670;8.676;2023-03-23T13:57:23;2.57;;;1.40;;
1649;SDS011;822;53.670;8.676;2023-03-23T13:59:58;1.33;;;0.73;;
1649;SDS011;822;53.670;8.676;2023-03-23T14:02:37;1.23;;;0.57;;
1649;SDS011;822;53.670;8.676;2023-03-23T14:05:25;2.67;;;0.90;;
1649;SDS011;822;53.670;8.676;2023-03-23T14:08:00;0.50;;;0.50;;
1649;SDS011;822;53.670;8.676;2023-03-23T14:10:32;2.20;;;0.70;;
1649;SDS011;822;53.670;8.676;2023-03-23T14:13:01;1.17;;;0.87;;
1649;SDS011;822;53.670;8.676;2023-03-23T14:15:40;3.53;;;1.00;;
1649;SDS011;822;53.670;8.676;2023-03-23T14:18:13;1.87;;;0.70;;
1649;SDS011;822;53.670;8.676;2023-03-23T14:20:45;4.57;;;1.37;;
1649;SDS011;822;53.670;8.676;2023-03-23T14:23:16;1.63;;;0.90;;
1649;SDS011;822;53.670;8.676;2023-03-23T14:25:53;0.83;;;0.83;;
1649;SDS011;822;53.670;8.676;2023-03-23T14:28:23;1.43;;;0.90;;
1649;SDS011;822;53.670;8.676;2023-03-23T14:30:55;0.87;;;0.80;;
1649;SDS011;822;53.670;8.676;2023-03-23T14:33:24;1.60;;;1.00;;
1649;SDS011;822;53.670;8.676;2023-03-23T14:35:53;0.80;;;0.80;;
1649;SDS011;822;53.670;8.676;2023-03-23T14:38:23;2.10;;;0.80;;
1649;SDS011;822;53.670;8.676;2023-03-23T14:41:03;1.27;;;0.70;;
1649;SDS011;822;53.670;8.676;2023-03-23T14:43:32;2.00;;;1.20;;
1649;SDS011;822;53.670;8.676;2023-03-23T14:46:03;1.47;;;0.70;;
1649;SDS011;822;53.670;8.676;2023-03-23T14:48:33;5.17;;;0.87;;
1649;SDS011;822;53.670;8.676;2023-03-23T14:51:02;1.83;;;1.30;;
1649;SDS011;822;53.670;8.676;2023-03-23T14:53:33;0.60;;;0.50;;
1649;SDS011;822;53.670;8.676;2023-03-23T14:56:03;1.00;;;0.80;;
1649;SDS011;822;53.670;8.676;2023-03-23T14:58:35;2.77;;;0.80;;
1649;SDS011;822;53.670;8.676;2023-03-23T15:01:05;2.90;;;0.70;;
1649;SDS011;822;53.670;8.676;2023-03-23T15:03:37;0.73;;;0.60;;
1649;SDS011;822;53.670;8.676;2023-03-23T15:06:12;0.53;;;0.53;;
1649;SDS011;822;53.670;8.676;2023-03-23T15:08:42;2.63;;;0.87;;
1649;SDS011;822;53.670;8.676;2023-03-23T15:11:11;1.23;;;0.77;;
1649;SDS011;822;53.670;8.676;2023-03-23T15:13:47;1.53;;;0.60;;
1649;SDS011;822;53.670;8.676;2023-03-23T15:16:19;1.90;;;1.03;;
1649;SDS011;822;53.670;8.676;2023-03-23T15:18:49;0.77;;;0.40;;
1649;SDS011;822;53.670;8.676;2023-03-23T15:21:24;2.20;;;0.67;;
1649;SDS011;822;53.670;8.676;2023-03-23T15:23:54;1.17;;;0.60;;
1649;SDS011;822;53.670;8.676;2023-03-23T15:26:26;1.20;;;0.80;;
1649;SDS011;822;53.670;8.676;2023-03-23T15:29:00;0.50;;;0.50;;
1649;SDS011;822;53.670;8.676;2023-03-23T15:31:42;2.00;;;0.90;;
1649;SDS011;822;53.670;8.676;2023-03-23T15:34:16;0.80;;;0.73;;
1649;SDS011;822;53.670;8.676;2023-03-23T15:36:55;3.50;;;0.90;;
1649;SDS011;822;53.670;8.676;2023-03-23T15:39:28;1.40;;;1.00;;
1649;SDS011;822;53.670;8.676;2023-03-23T15:41:56;2.03;;;1.07;;
1649;SDS011;822;53.670;8.676;2023-03-23T15:44:25;1.37;;;0.90;;
1649;SDS011;822;53.670;8.676;2023-03-23T15:47:14;1.47;;;0.90;;
1649;SDS011;822;53.670;8.676;2023-03-23T15:49:43;0.97;;;0.90;;
1649;SDS011;822;53.670;8.676;2023-03-23T15:52:12;4.40;;;0.87;;
1649;SDS011;822;53.670;8.676;2023-03-23T15:54:45;1.47;;;1.17;;
1649;SDS011;822;53.670;8.676;2023-03-23T15:57:13;2.27;;;0.80;;
1649;SDS011;822;53.670;8.676;2023-03-23T15:59:40;2.27;;;0.80;;
1649;SDS011;822;53.670;8.676;2023-03-23T16:02:10;0.80;;;0.80;;
1649;SDS011;822;53.670;8.676;2023-03-23T16:04:45;1.23;;;0.80;;
1649;SDS011;822;53.670;8.676;2023-03-23T16:07:13;2.00;;;1.03;;
1649;SDS011;822;53.670;8.676;2023-03-23T16:09:40;0.77;;;0.77;;
1649;SDS011;822;53.670;8.676;2023-03-23T16:12:09;2.10;;;0.90;;
1649;SDS011;822;53.670;8.676;2023-03-23T16:14:38;3.80;;;0.90;;